sensor_id;sensor_type;location;lat;lon;timestamp;pressure;altitude;pressure_sealevel;temperature;humidity
77583;BME280;66726;52.388;9.986;2023-01-23T00:01:37;102814.31;;;0.92;92.96
77583;BME280;66726;52.388;9.986;2023-01-23T00:04:05;102819.59;;;0.92;93.23
77583;BME280;66726;52.388;9.986;2023-01-23T00:06:34;102820.50;;;0.91;93.18
77583;BME280;66726;52.388;9.986;2023-01-23T00:09:02;102816.03;;;0.93;93.28
77583;BME280;66726;52.388;9.986;2023-01-23T00:11:33;102818.63;;;0.94;93.35
77583;BME280;66726;52.388;9.986;2023-01-23T00:14:02;102819.59;;;0.92;92.78
77583;BME280;66726;52.388;9.986;2023-01-23T00:16:31;102825.66;;;0.94;93.59
77583;BME280;66726;52.388;9.986;2023-01-23T00:19:00;102822.94;;;0.97;92.97
77583;BME280;66726;52.388;9.986;2023-01-23T00:21:29;102820.25;;;0.98;92.88
77583;BME280;66726;52.388;9.986;2023-01-23T00:23:59;102821.19;;;0.96;92.69
77583;BME280;66726;52.388;9.986;2023-01-23T00:26:31;102825.63;;;0.95;92.75
77583;BME280;66726;52.388;9.986;2023-01-23T00:29:00;102815.19;;;0.92;92.83
77583;BME280;66726;52.388;9.986;2023-01-23T00:31:33;102822.22;;;0.92;92.79
77583;BME280;66726;52.388;9.986;2023-01-23T00:34:05;102823.13;;;0.91;93.05
77583;BME280;66726;52.388;9.986;2023-01-23T00:36:36;102822.22;;;0.92;93.50
77583;BME280;66726;52.388;9.986;2023-01-23T00:39:08;102819.63;;;0.90;93.28
77583;BME280;66726;52.388;9.986;2023-01-23T00:41:37;102834.53;;;0.91;93.69
77583;BME280;66726;52.388;9.986;2023-01-23T00:44:05;102829.41;;;0.87;93.54
77583;BME280;66726;52.388;9.986;2023-01-23T00:46:34;102812.78;;;0.85;93.80
77583;BME280;66726;52.388;9.986;2023-01-23T00:49:02;102821.50;;;0.87;94.13
77583;BME280;66726;52.388;9.986;2023-01-23T00:51:31;102823.22;;;0.88;93.26
77583;BME280;66726;52.388;9.986;2023-01-23T00:53:59;102813.66;;;0.85;93.81
77583;BME280;66726;52.388;9.986;2023-01-23T00:56:28;102819.75;;;0.86;93.04
77583;BME280;66726;52.388;9.986;2023-01-23T00:58:57;102820.59;;;0.88;93.68
77583;BME280;66726;52.388;9.986;2023-01-23T01:01:25;102826.66;;;0.90;93.51
77583;BME280;66726;52.388;9.986;2023-01-23T01:03:54;102821.41;;;0.90;93.18
77583;BME280;66726;52.388;9.986;2023-01-23T01:06:23;102814.31;;;0.92;93.79
77583;BME280;66726;52.388;9.986;2023-01-23T01:08:51;102824.91;;;0.90;93.98
77583;BME280;66726;52.388;9.986;2023-01-23T01:11:19;102828.41;;;0.91;93.45
77583;BME280;66726;52.388;9.986;2023-01-23T01:13:47;102831.84;;;0.93;93.69
77583;BME280;66726;52.388;9.986;2023-01-23T01:16:17;102831.84;;;0.93;93.17
77583;BME280;66726;52.388;9.986;2023-01-23T01:18:45;102839.72;;;0.94;93.46
77583;BME280;66726;52.388;9.986;2023-01-23T01:21:14;102842.28;;;0.96;93.68
77583;BME280;66726;52.388;9.986;2023-01-23T01:23:42;102841.50;;;0.94;93.36
77583;BME280;66726;52.388;9.986;2023-01-23T01:26:10;102849.41;;;0.94;92.75
77583;BME280;66726;52.388;9.986;2023-01-23T01:28:40;102843.22;;;0.95;92.96
77583;BME280;66726;52.388;9.986;2023-01-23T01:31:11;102851.13;;;0.95;93.08
77583;BME280;66726;52.388;9.986;2023-01-23T01:33:42;102863.38;;;0.96;92.99
77583;BME280;66726;52.388;9.986;2023-01-23T01:36:13;102852.84;;;0.96;93.59
77583;BME280;66726;52.388;9.986;2023-01-23T01:38:42;102858.97;;;0.96;92.97
77583;BME280;66726;52.388;9.986;2023-01-23T01:41:11;102859.84;;;0.97;93.13
77583;BME280;66726;52.388;9.986;2023-01-23T01:43:40;102861.59;;;0.98;93.57
77583;BME280;66726;52.388;9.986;2023-01-23T01:46:18;102866.97;;;0.95;93.24
77583;BME280;66726;52.388;9.986;2023-01-23T01:49:04;102865.97;;;0.99;92.71
77583;BME280;66726;52.388;9.986;2023-01-23T01:51:40;102865.03;;;1.00;93.22
77583;BME280;66726;52.388;9.986;2023-01-23T01:54:18;102872.16;;;0.96;93.33
77583;BME280;66726;52.388;9.986;2023-01-23T01:56:53;102874.88;;;0.95;92.76
77583;BME280;66726;52.388;9.986;2023-01-23T01:59:30;102876.56;;;0.96;93.24
77583;BME280;66726;52.388;9.986;2023-01-23T02:02:09;102879.31;;;0.93;93.00
77583;BME280;66726;52.388;9.986;2023-01-23T02:04:47;102888.06;;;0.95;93.04
77583;BME280;66726;52.388;9.986;2023-01-23T02:07:23;102885.53;;;0.92;93.41
77583;BME280;66726;52.388;9.986;2023-01-23T02:09:54;102888.06;;;0.95;93.82
77583;BME280;66726;52.388;9.986;2023-01-23T02:12:23;102892.41;;;0.96;93.09
77583;BME280;66726;52.388;9.986;2023-01-23T02:14:54;102883.59;;;0.97;93.06
77583;BME280;66726;52.388;9.986;2023-01-23T02:17:22;102886.22;;;0.97;93.72
77583;BME280;66726;52.388;9.986;2023-01-23T02:20:00;102883.56;;;0.98;93.45
77583;BME280;66726;52.388;9.986;2023-01-23T02:22:40;102887.06;;;0.99;93.28
77583;BME280;66726;52.388;9.986;2023-01-23T02:25:21;102882.59;;;1.01;93.49
77583;BME280;66726;52.388;9.986;2023-01-23T02:27:55;102887.88;;;1.01;92.81
77583;BME280;66726;52.388;9.986;2023-01-23T02:30:23;102885.22;;;1.01;93.02
77583;BME280;66726;52.388;9.986;2023-01-23T02:32:52;102887.97;;;0.98;93.08
77583;BME280;66726;52.388;9.986;2023-01-23T02:35:25;102899.31;;;1.00;93.37
77583;BME280;66726;52.388;9.986;2023-01-23T02:37:59;102904.59;;;1.00;93.47
77583;BME280;66726;52.388;9.986;2023-01-23T02:40:31;102906.44;;;0.98;93.20
77583;BME280;66726;52.388;9.986;2023-01-23T02:43:02;102904.66;;;0.98;93.49
77583;BME280;66726;52.388;9.986;2023-01-23T02:45:31;102910.81;;;0.99;93.03
77583;BME280;66726;52.388;9.986;2023-01-23T02:48:01;102914.34;;;0.98;92.83
77583;BME280;66726;52.388;9.986;2023-01-23T02:50:31;102916.13;;;0.96;92.92
77583;BME280;66726;52.388;9.986;2023-01-23T02:52:59;102917.88;;;0.97;93.45
77583;BME280;66726;52.388;9.986;2023-01-23T02:55:28;102919.72;;;0.95;94.00
77583;BME280;66726;52.388;9.986;2023-01-23T02:57:57;102908.22;;;0.96;92.80
77583;BME280;66726;52.388;9.986;2023-01-23T03:00:47;102910.84;;;0.97;92.76
77583;BME280;66726;52.388;9.986;2023-01-23T03:03:14;102915.22;;;0.98;93.32
77583;BME280;66726;52.388;9.986;2023-01-23T03:05:42;102911.59;;;1.01;93.28
77583;BME280;66726;52.388;9.986;2023-01-23T03:08:10;102917.78;;;1.00;93.31
77583;BME280;66726;52.388;9.986;2023-01-23T03:10:38;102922.13;;;1.02;93.19
77583;BME280;66726;52.388;9.986;2023-01-23T03:13:06;102917.78;;;1.00;92.83
77583;BME280;66726;52.388;9.986;2023-01-23T03:15:38;102916.06;;;0.99;92.45
77583;BME280;66726;52.388;9.986;2023-01-23T03:18:09;102913.34;;;1.02;92.72
77583;BME280;66726;52.388;9.986;2023-01-23T03:20:38;102920.31;;;1.03;92.76
77583;BME280;66726;52.388;9.986;2023-01-23T03:23:07;102924.78;;;1.01;92.97
77583;BME280;66726;52.388;9.986;2023-01-23T03:25:35;102923.91;;;1.00;92.35
77583;BME280;66726;52.388;9.986;2023-01-23T03:28:04;102927.44;;;1.01;92.20
77583;BME280;66726;52.388;9.986;2023-01-23T03:30:52;102922.13;;;1.02;92.22
77583;BME280;66726;52.388;9.986;2023-01-23T03:33:20;102921.19;;;1.03;92.67
77583;BME280;66726;52.388;9.986;2023-01-23T03:35:48;102926.53;;;1.02;91.98
77583;BME280;66726;52.388;9.986;2023-01-23T03:38:16;102925.66;;;1.01;92.31
77583;BME280;66726;52.388;9.986;2023-01-23T03:40:48;102928.31;;;1.00;92.07
77583;BME280;66726;52.388;9.986;2023-01-23T03:43:34;102926.56;;;1.00;92.67
77583;BME280;66726;52.388;9.986;2023-01-23T03:46:02;102923.91;;;1.00;92.82
77583;BME280;66726;52.388;9.986;2023-01-23T03:48:32;102917.75;;;1.01;92.59
77583;BME280;66726;52.388;9.986;2023-01-23T03:51:00;102915.22;;;0.98;92.77
77583;BME280;66726;52.388;9.986;2023-01-23T03:53:28;102920.41;;;1.00;92.29
77583;BME280;66726;52.388;9.986;2023-01-23T03:55:56;102920.38;;;1.01;92.03
77583;BME280;66726;52.388;9.986;2023-01-23T03:58:24;102926.53;;;1.02;92.00
77583;BME280;66726;52.388;9.986;2023-01-23T04:00:52;102913.34;;;1.02;92.13
77583;BME280;66726;52.388;9.986;2023-01-23T04:03:21;102914.22;;;1.02;91.98
77583;BME280;66726;52.388;9.986;2023-01-23T04:05:55;102914.28;;;0.99;92.58
77583;BME280;66726;52.388;9.986;2023-01-23T04:08:24;102923.06;;;1.00;92.40
77583;BME280;66726;52.388;9.986;2023-01-23T04:11:01;102914.25;;;1.01;92.80
77583;BME280;66726;52.388;9.986;2023-01-23T04:13:29;102916.06;;;0.99;91.94
77583;BME280;66726;52.388;9.986;2023-01-23T04:15:58;102917.00;;;0.96;92.04
77583;BME280;66726;52.388;9.986;2023-01-23T04:18:27;102918.78;;;0.96;92.76
77583;BME280;66726;52.388;9.986;2023-01-23T04:20:57;102922.34;;;0.95;92.18
77583;BME280;66726;52.388;9.986;2023-01-23T04:23:25;102927.56;;;0.96;92.87
77583;BME280;66726;52.388;9.986;2023-01-23T04:25:53;102933.69;;;0.97;92.80
77583;BME280;66726;52.388;9.986;2023-01-23T04:28:22;102931.97;;;0.96;92.36
77583;BME280;66726;52.388;9.986;2023-01-23T04:30:51;102934.56;;;0.97;92.38
77583;BME280;66726;52.388;9.986;2023-01-23T04:33:20;102938.16;;;0.95;92.18
77583;BME280;66726;52.388;9.986;2023-01-23T04:35:51;102943.34;;;0.98;92.24
77583;BME280;66726;52.388;9.986;2023-01-23T04:38:21;102949.44;;;1.00;92.65
77583;BME280;66726;52.388;9.986;2023-01-23T04:40:50;102948.56;;;0.99;92.76
77583;BME280;66726;52.388;9.986;2023-01-23T04:43:18;102956.44;;;1.01;92.85
77583;BME280;66726;52.388;9.986;2023-01-23T04:45:49;102959.97;;;1.00;92.05
77583;BME280;66726;52.388;9.986;2023-01-23T04:48:21;102947.63;;;1.02;92.54
77583;BME280;66726;52.388;9.986;2023-01-23T04:50:49;102946.69;;;1.03;92.56
77583;BME280;66726;52.388;9.986;2023-01-23T04:53:18;102943.16;;;1.04;92.27
77583;BME280;66726;52.388;9.986;2023-01-23T04:55:50;102937.84;;;1.06;92.19
77583;BME280;66726;52.388;9.986;2023-01-23T04:58:18;102943.13;;;1.06;92.46
77583;BME280;66726;52.388;9.986;2023-01-23T05:00:47;102938.72;;;1.06;91.83
77583;BME280;66726;52.388;9.986;2023-01-23T05:03:15;102933.44;;;1.06;92.37
77583;BME280;66726;52.388;9.986;2023-01-23T05:05:47;102937.84;;;1.06;92.27
77583;BME280;66726;52.388;9.986;2023-01-23T05:08:15;102931.72;;;1.05;92.35
77583;BME280;66726;52.388;9.986;2023-01-23T05:10:43;102928.97;;;1.08;92.09
77583;BME280;66726;52.388;9.986;2023-01-23T05:13:12;102934.25;;;1.08;92.30
77583;BME280;66726;52.388;9.986;2023-01-23T05:15:41;102937.88;;;1.04;92.22
77583;BME280;66726;52.388;9.986;2023-01-23T05:18:09;102945.84;;;1.02;91.92
77583;BME280;66726;52.388;9.986;2023-01-23T05:20:37;102939.72;;;1.02;92.07
77583;BME280;66726;52.388;9.986;2023-01-23T05:23:05;102947.63;;;1.02;91.76
77583;BME280;66726;52.388;9.986;2023-01-23T05:25:35;102953.78;;;1.02;92.38
77583;BME280;66726;52.388;9.986;2023-01-23T05:28:04;102959.88;;;1.03;91.88
77583;BME280;66726;52.388;9.986;2023-01-23T05:30:33;102967.00;;;1.01;91.88
77583;BME280;66726;52.388;9.986;2023-01-23T05:33:02;102959.88;;;1.03;92.33
77583;BME280;66726;52.388;9.986;2023-01-23T05:35:30;102956.41;;;1.02;92.04
77583;BME280;66726;52.388;9.986;2023-01-23T05:37:58;102956.34;;;1.04;92.48
77583;BME280;66726;52.388;9.986;2023-01-23T05:40:27;102951.94;;;1.05;92.25
77583;BME280;66726;52.388;9.986;2023-01-23T05:42:56;102956.44;;;1.01;91.98
77583;BME280;66726;52.388;9.986;2023-01-23T05:45:25;102949.34;;;1.03;91.88
77583;BME280;66726;52.388;9.986;2023-01-23T05:47:56;102958.28;;;0.99;92.44
77583;BME280;66726;52.388;9.986;2023-01-23T05:50:24;102961.91;;;0.95;92.38
77583;BME280;66726;52.388;9.986;2023-01-23T05:52:53;102959.28;;;0.95;92.55
77583;BME280;66726;52.388;9.986;2023-01-23T05:55:21;102962.72;;;0.97;92.43
77583;BME280;66726;52.388;9.986;2023-01-23T05:57:49;102969.75;;;0.96;91.72
77583;BME280;66726;52.388;9.986;2023-01-23T06:00:19;102975.09;;;0.95;91.46
77583;BME280;66726;52.388;9.986;2023-01-23T06:02:47;102973.25;;;0.97;91.66
77583;BME280;66726;52.388;9.986;2023-01-23T06:05:17;102987.22;;;1.00;92.00
77583;BME280;66726;52.388;9.986;2023-01-23T06:07:45;102993.47;;;0.98;91.47
77583;BME280;66726;52.388;9.986;2023-01-23T06:10:14;102995.19;;;0.99;91.60
77583;BME280;66726;52.388;9.986;2023-01-23T06:12:42;103001.28;;;1.01;91.66
77583;BME280;66726;52.388;9.986;2023-01-23T06:15:11;102996.09;;;0.98;91.47
77583;BME280;66726;52.388;9.986;2023-01-23T06:17:39;103002.28;;;0.97;91.07
77583;BME280;66726;52.388;9.986;2023-01-23T06:20:09;103005.00;;;0.94;91.49
77583;BME280;66726;52.388;9.986;2023-01-23T06:22:39;103011.94;;;0.96;91.70
77583;BME280;66726;52.388;9.986;2023-01-23T06:25:09;103022.41;;;0.99;91.55
77583;BME280;66726;52.388;9.986;2023-01-23T06:27:37;103026.78;;;1.00;91.69
77583;BME280;66726;52.388;9.986;2023-01-23T06:30:07;103026.00;;;0.97;91.01
77583;BME280;66726;52.388;9.986;2023-01-23T06:32:36;103029.59;;;0.94;90.94
77583;BME280;66726;52.388;9.986;2023-01-23T06:35:05;103022.56;;;0.95;91.33
77583;BME280;66726;52.388;9.986;2023-01-23T06:37:33;103019.94;;;0.95;91.20
77583;BME280;66726;52.388;9.986;2023-01-23T06:40:04;103030.38;;;0.98;91.47
77583;BME280;66726;52.388;9.986;2023-01-23T06:42:32;103026.00;;;0.97;90.99
77583;BME280;66726;52.388;9.986;2023-01-23T06:45:01;103026.84;;;0.99;91.15
77583;BME280;66726;52.388;9.986;2023-01-23T06:47:29;103022.47;;;0.98;90.72
77583;BME280;66726;52.388;9.986;2023-01-23T06:49:59;103031.28;;;0.97;91.42
77583;BME280;66726;52.388;9.986;2023-01-23T06:52:30;103046.31;;;0.95;91.22
77583;BME280;66726;52.388;9.986;2023-01-23T06:54:58;103051.56;;;0.95;90.98
77583;BME280;66726;52.388;9.986;2023-01-23T06:57:28;103067.41;;;0.95;91.27
77583;BME280;66726;52.388;9.986;2023-01-23T06:59:56;103067.41;;;0.95;90.53
77583;BME280;66726;52.388;9.986;2023-01-23T07:02:25;103067.50;;;0.92;90.69
77583;BME280;66726;52.388;9.986;2023-01-23T07:04:53;103067.44;;;0.93;90.87
77583;BME280;66726;52.388;9.986;2023-01-23T07:07:21;103066.56;;;0.93;90.38
77583;BME280;66726;52.388;9.986;2023-01-23T07:09:49;103068.34;;;0.92;90.52
77583;BME280;66726;52.388;9.986;2023-01-23T07:12:18;103064.94;;;0.89;90.48
77583;BME280;66726;52.388;9.986;2023-01-23T07:14:47;103075.44;;;0.90;90.73
77583;BME280;66726;52.388;9.986;2023-01-23T07:17:15;103073.66;;;0.91;90.24
77583;BME280;66726;52.388;9.986;2023-01-23T07:19:43;103082.44;;;0.91;90.14
77583;BME280;66726;52.388;9.986;2023-01-23T07:22:15;103082.63;;;0.85;90.97
77583;BME280;66726;52.388;9.986;2023-01-23T07:24:43;103088.72;;;0.86;90.92
77583;BME280;66726;52.388;9.986;2023-01-23T07:27:11;103101.09;;;0.84;91.07
77583;BME280;66726;52.388;9.986;2023-01-23T07:29:39;103095.81;;;0.84;91.41
77583;BME280;66726;52.388;9.986;2023-01-23T07:32:08;103101.09;;;0.84;90.77
77583;BME280;66726;52.388;9.986;2023-01-23T07:34:37;103103.72;;;0.85;91.01
77583;BME280;66726;52.388;9.986;2023-01-23T07:37:05;103109.81;;;0.86;91.03
77583;BME280;66726;52.388;9.986;2023-01-23T07:39:34;103110.75;;;0.85;91.11
77583;BME280;66726;52.388;9.986;2023-01-23T07:42:02;103108.13;;;0.85;91.33
77583;BME280;66726;52.388;9.986;2023-01-23T07:44:30;103114.25;;;0.85;90.87
77583;BME280;66726;52.388;9.986;2023-01-23T07:46:58;103112.53;;;0.84;90.43
77583;BME280;66726;52.388;9.986;2023-01-23T07:49:28;103113.47;;;0.82;90.89
77583;BME280;66726;52.388;9.986;2023-01-23T07:51:56;103111.72;;;0.81;91.53
77583;BME280;66726;52.388;9.986;2023-01-23T07:54:24;103108.19;;;0.82;91.67
77583;BME280;66726;52.388;9.986;2023-01-23T07:56:52;103110.88;;;0.80;90.98
77583;BME280;66726;52.388;9.986;2023-01-23T07:59:21;103108.19;;;0.82;91.25
77583;BME280;66726;52.388;9.986;2023-01-23T08:01:49;103115.19;;;0.83;90.71
77583;BME280;66726;52.388;9.986;2023-01-23T08:04:19;103116.94;;;0.84;91.01
77583;BME280;66726;52.388;9.986;2023-01-23T08:06:48;103116.13;;;0.80;91.35
77583;BME280;66726;52.388;9.986;2023-01-23T08:09:16;103127.56;;;0.81;90.71
77583;BME280;66726;52.388;9.986;2023-01-23T08:11:45;103120.50;;;0.81;90.74
77583;BME280;66726;52.388;9.986;2023-01-23T08:14:13;103124.81;;;0.85;91.62
77583;BME280;66726;52.388;9.986;2023-01-23T08:16:41;103122.19;;;0.84;91.48
77583;BME280;66726;52.388;9.986;2023-01-23T08:19:09;103120.47;;;0.83;90.82
77583;BME280;66726;52.388;9.986;2023-01-23T08:21:37;103120.47;;;0.83;91.48
77583;BME280;66726;52.388;9.986;2023-01-23T08:24:08;103116.06;;;0.83;91.45
77583;BME280;66726;52.388;9.986;2023-01-23T08:26:38;103120.47;;;0.83;91.09
77583;BME280;66726;52.388;9.986;2023-01-23T08:29:07;103117.81;;;0.83;90.76
77583;BME280;66726;52.388;9.986;2023-01-23T08:31:35;103122.13;;;0.87;91.17
77583;BME280;66726;52.388;9.986;2023-01-23T08:34:03;103117.69;;;0.89;91.14
77583;BME280;66726;52.388;9.986;2023-01-23T08:36:32;103115.06;;;0.89;90.79
77583;BME280;66726;52.388;9.986;2023-01-23T08:39:00;103123.78;;;0.91;91.20
77583;BME280;66726;52.388;9.986;2023-01-23T08:41:30;103125.50;;;0.92;90.63
77583;BME280;66726;52.388;9.986;2023-01-23T08:43:58;103128.16;;;0.92;90.91
77583;BME280;66726;52.388;9.986;2023-01-23T08:46:27;103130.69;;;0.95;90.75
77583;BME280;66726;52.388;9.986;2023-01-23T08:48:56;103133.34;;;0.95;90.98
77583;BME280;66726;52.388;9.986;2023-01-23T08:51:24;103139.50;;;0.94;91.06
77583;BME280;66726;52.388;9.986;2023-01-23T08:53:53;103135.97;;;0.95;90.60
77583;BME280;66726;52.388;9.986;2023-01-23T08:56:23;103132.50;;;0.93;90.38
77583;BME280;66726;52.388;9.986;2023-01-23T08:58:53;103134.41;;;0.88;90.54
77583;BME280;66726;52.388;9.986;2023-01-23T09:01:24;103137.94;;;0.87;90.44
77583;BME280;66726;52.388;9.986;2023-01-23T09:03:52;103136.16;;;0.89;90.64
77583;BME280;66726;52.388;9.986;2023-01-23T09:06:21;103129.22;;;0.85;90.54
77583;BME280;66726;52.388;9.986;2023-01-23T09:08:50;103127.38;;;0.87;91.17
77583;BME280;66726;52.388;9.986;2023-01-23T09:11:18;103145.75;;;0.90;90.48
77583;BME280;66726;52.388;9.986;2023-01-23T09:13:49;103143.13;;;0.90;90.50
77583;BME280;66726;52.388;9.986;2023-01-23T09:16:21;103136.94;;;0.92;91.13
77583;BME280;66726;52.388;9.986;2023-01-23T09:18:49;103146.56;;;0.93;90.50
77583;BME280;66726;52.388;9.986;2023-01-23T09:21:17;103149.25;;;0.92;90.86
77583;BME280;66726;52.388;9.986;2023-01-23T09:23:46;103157.16;;;0.92;90.64
77583;BME280;66726;52.388;9.986;2023-01-23T09:26:14;103159.78;;;0.92;91.70
77583;BME280;66726;52.388;9.986;2023-01-23T09:28:45;103150.88;;;0.96;91.23
77583;BME280;66726;52.388;9.986;2023-01-23T09:31:16;103157.06;;;0.95;90.90
77583;BME280;66726;52.388;9.986;2023-01-23T09:33:47;103165.97;;;0.91;91.01
77583;BME280;66726;52.388;9.986;2023-01-23T09:36:15;103162.44;;;0.92;91.52
77583;BME280;66726;52.388;9.986;2023-01-23T09:38:43;103165.94;;;0.92;90.85
77583;BME280;66726;52.388;9.986;2023-01-23T09:41:18;103170.25;;;0.95;91.03
77583;BME280;66726;52.388;9.986;2023-01-23T09:43:56;103171.06;;;0.97;91.80
77583;BME280;66726;52.388;9.986;2023-01-23T09:46:29;103178.09;;;0.98;91.32
77583;BME280;66726;52.388;9.986;2023-01-23T09:49:08;103185.13;;;0.99;91.00
77583;BME280;66726;52.388;9.986;2023-01-23T09:51:51;103187.66;;;1.02;91.18
77583;BME280;66726;52.388;9.986;2023-01-23T09:54:34;103185.13;;;0.99;91.18
77583;BME280;66726;52.388;9.986;2023-01-23T09:57:12;103187.75;;;0.99;91.74
77583;BME280;66726;52.388;9.986;2023-01-23T09:59:48;103192.22;;;0.95;91.11
77583;BME280;66726;52.388;9.986;2023-01-23T10:02:27;103192.25;;;0.94;91.78
77583;BME280;66726;52.388;9.986;2023-01-23T10:04:58;103187.78;;;0.96;92.09
77583;BME280;66726;52.388;9.986;2023-01-23T10:07:58;103182.50;;;0.97;91.88
77583;BME280;66726;52.388;9.986;2023-01-23T10:10:56;103188.66;;;0.98;91.37
77583;BME280;66726;52.388;9.986;2023-01-23T10:13:47;103193.84;;;1.01;92.00
77583;BME280;66726;52.388;9.986;2023-01-23T10:16:40;103200.78;;;1.05;91.69
77583;BME280;66726;52.388;9.986;2023-01-23T10:22:36;103197.44;;;0.97;91.26
77583;BME280;66726;52.388;9.986;2023-01-23T10:25:14;103200.97;;;0.96;91.30
77583;BME280;66726;52.388;9.986;2023-01-23T10:27:46;103200.97;;;0.96;91.93
77583;BME280;66726;52.388;9.986;2023-01-23T10:30:27;103195.78;;;0.93;91.36
77583;BME280;66726;52.388;9.986;2023-01-23T10:32:59;103200.97;;;0.96;91.96
77583;BME280;66726;52.388;9.986;2023-01-23T10:35:35;103201.84;;;0.98;91.67
77583;BME280;66726;52.388;9.986;2023-01-23T10:38:23;103203.59;;;0.97;91.33
77583;BME280;66726;52.388;9.986;2023-01-23T10:40:53;103204.38;;;1.01;92.08
77583;BME280;66726;52.388;9.986;2023-01-23T10:43:39;103208.84;;;0.99;91.41
77583;BME280;66726;52.388;9.986;2023-01-23T10:46:14;103206.16;;;1.00;91.53
77583;BME280;66726;52.388;9.986;2023-01-23T10:48:45;103206.22;;;0.99;91.66
77583;BME280;66726;52.388;9.986;2023-01-23T10:51:43;103199.13;;;1.01;91.52
77583;BME280;66726;52.388;9.986;2023-01-23T10:54:20;103206.13;;;1.02;91.33
77583;BME280;66726;52.388;9.986;2023-01-23T10:57:01;103204.38;;;1.02;90.83
77583;BME280;66726;52.388;9.986;2023-01-23T10:59:35;103201.75;;;1.01;91.39
77583;BME280;66726;52.388;9.986;2023-01-23T11:02:29;103197.28;;;1.03;91.10
77583;BME280;66726;52.388;9.986;2023-01-23T11:04:58;103194.63;;;1.05;91.39
77583;BME280;66726;52.388;9.986;2023-01-23T11:07:30;103189.31;;;1.06;91.21
77583;BME280;66726;52.388;9.986;2023-01-23T11:10:15;103194.63;;;1.05;91.42
77583;BME280;66726;52.388;9.986;2023-01-23T11:12:48;103184.03;;;1.06;90.93
77583;BME280;66726;52.388;9.986;2023-01-23T11:15:22;103184.00;;;1.08;91.42
77583;BME280;66726;52.388;9.986;2023-01-23T11:17:53;103188.41;;;1.07;91.53
77583;BME280;66726;52.388;9.986;2023-01-23T11:20:25;103193.75;;;1.04;90.83
77583;BME280;66726;52.388;9.986;2023-01-23T11:23:05;103187.53;;;1.07;91.46
77583;BME280;66726;52.388;9.986;2023-01-23T11:25:51;103183.91;;;1.11;90.98
77583;BME280;66726;52.388;9.986;2023-01-23T11:28:27;103184.84;;;1.08;90.89
77583;BME280;66726;52.388;9.986;2023-01-23T11:31:05;103172.56;;;1.07;90.59
77583;BME280;66726;52.388;9.986;2023-01-23T11:33:51;103184.78;;;1.11;90.74
77583;BME280;66726;52.388;9.986;2023-01-23T11:36:37;103174.22;;;1.11;90.95
77583;BME280;66726;52.388;9.986;2023-01-23T11:39:32;103172.41;;;1.13;90.63
77583;BME280;66726;52.388;9.986;2023-01-23T11:42:06;103169.69;;;1.16;90.79
77583;BME280;66726;52.388;9.986;2023-01-23T11:44:51;103169.66;;;1.18;90.74
77583;BME280;66726;52.388;9.986;2023-01-23T11:48:05;103165.25;;;1.17;90.50
77583;BME280;66726;52.388;9.986;2023-01-23T11:50:43;103168.78;;;1.17;91.03
77583;BME280;66726;52.388;9.986;2023-01-23T11:53:31;103172.25;;;1.19;90.69
77583;BME280;66726;52.388;9.986;2023-01-23T11:56:46;103172.19;;;1.21;90.31
77583;BME280;66726;52.388;9.986;2023-01-23T11:59:55;103166.19;;;1.16;90.38
77583;BME280;66726;52.388;9.986;2023-01-23T12:03:12;103167.97;;;1.15;90.43
77583;BME280;66726;52.388;9.986;2023-01-23T12:06:02;103165.25;;;1.17;90.67
77583;BME280;66726;52.388;9.986;2023-01-23T12:09:07;103166.97;;;1.19;90.69
77583;BME280;66726;52.388;9.986;2023-01-23T12:11:52;103165.16;;;1.21;91.03
77583;BME280;66726;52.388;9.986;2023-01-23T12:14:30;103166.09;;;1.19;91.07
77583;BME280;66726;52.388;9.986;2023-01-23T12:17:20;103165.25;;;1.18;90.65
77583;BME280;66726;52.388;9.986;2023-01-23T12:20:34;103159.00;;;1.21;90.62
77583;BME280;66726;52.388;9.986;2023-01-23T12:26:12;103157.28;;;1.20;91.00
77583;BME280;66726;52.388;9.986;2023-01-23T12:29:19;103159.06;;;1.19;91.28
77583;BME280;66726;52.388;9.986;2023-01-23T12:32:10;103159.88;;;1.21;91.32
77583;BME280;66726;52.388;9.986;2023-01-23T12:35:00;103156.44;;;1.19;90.97
77583;BME280;66726;52.388;9.986;2023-01-23T12:37:54;103153.81;;;1.18;91.36
77583;BME280;66726;52.388;9.986;2023-01-23T12:40:32;103160.84;;;1.19;90.95
77583;BME280;66726;52.388;9.986;2023-01-23T12:43:12;103155.44;;;1.23;91.27
77583;BME280;66726;52.388;9.986;2023-01-23T12:45:46;103158.88;;;1.25;90.69
77583;BME280;66726;52.388;9.986;2023-01-23T12:48:25;103164.06;;;1.30;91.06
77583;BME280;66726;52.388;9.986;2023-01-23T12:51:09;103164.97;;;1.27;91.15
77583;BME280;66726;52.388;9.986;2023-01-23T12:53:43;103161.34;;;1.31;91.08
77583;BME280;66726;52.388;9.986;2023-01-23T12:56:18;103156.97;;;1.30;91.42
77583;BME280;66726;52.388;9.986;2023-01-23T12:59:01;103164.88;;;1.30;90.75
77583;BME280;66726;52.388;9.986;2023-01-23T13:01:54;103173.56;;;1.35;91.05
77583;BME280;66726;52.388;9.986;2023-01-23T13:04:49;103170.03;;;1.36;90.95
77583;BME280;66726;52.388;9.986;2023-01-23T13:10:42;103167.41;;;1.35;91.15
77583;BME280;66726;52.388;9.986;2023-01-23T13:13:31;103171.81;;;1.34;91.25
77583;BME280;66726;52.388;9.986;2023-01-23T13:16:04;103166.63;;;1.31;90.94
77583;BME280;66726;52.388;9.986;2023-01-23T13:18:37;103170.16;;;1.30;90.91
77583;BME280;66726;52.388;9.986;2023-01-23T13:21:25;103164.84;;;1.33;91.11
77583;BME280;66726;52.388;9.986;2023-01-23T13:24:45;103164.84;;;1.33;90.94
77583;BME280;66726;52.388;9.986;2023-01-23T13:27:44;103170.03;;;1.36;91.13
77583;BME280;66726;52.388;9.986;2023-01-23T13:30:38;103173.56;;;1.35;91.34
77583;BME280;66726;52.388;9.986;2023-01-23T13:33:51;103177.00;;;1.37;91.04
77583;BME280;66726;52.388;9.986;2023-01-23T13:36:35;103185.78;;;1.39;90.94
77583;BME280;66726;52.388;9.986;2023-01-23T13:39:24;103191.13;;;1.36;91.38
77583;BME280;66726;52.388;9.986;2023-01-23T13:42:42;103177.84;;;1.39;91.18
77583;BME280;66726;52.388;9.986;2023-01-23T13:45:32;103174.22;;;1.43;91.26